Terminal Aerodrome Forecast
Issued by NWS

Home | Current Version | Previous Version | Text Only | Print | Product List | Glossary On
Versions: 1 2 3 4 5 6 7 8 9 10 11 12 13 14 15 16 17 18 19 20 21 22 23 24 25 26 27 28 29 30 31 32
780
FTUS45 KGJT 230540
TAFRIL
TAF
KRIL 230540Z 2306/2406 20006KT P6SM SCT120
     FM231200 25008KT P6SM BKN060 OVC100
     FM231800 27010G20KT P6SM VCSH OVC060
     FM240000 30010G20KT 6SM -SHRA OVC060
     FM240500 29008KT P6SM VCSH OVC060=

USA.gov is the U.S. government's official web portal to all federal, state and local government web resources and services.